createdAt,value
2022-10-29T03:01:38.123Z,10.50
2022-10-29T03:04:06.782Z,10.07
2022-10-29T03:06:35.139Z,9.33
2022-10-29T03:09:03.572Z,11.73
2022-10-29T03:11:32.021Z,9.90
2022-10-29T03:14:00.514Z,9.80
2022-10-29T03:16:28.876Z,9.27
2022-10-29T03:18:58.672Z,8.40
2022-10-29T03:21:27.005Z,9.40
2022-10-29T03:23:55.638Z,9.43
2022-10-29T03:26:24.271Z,9.20
2022-10-29T03:28:52.681Z,9.40
2022-10-29T03:31:21.095Z,10.80
2022-10-29T03:33:49.419Z,10.20
2022-10-29T03:36:19.207Z,10.30
2022-10-29T03:38:47.526Z,8.40
2022-10-29T03:41:16.548Z,9.43
2022-10-29T03:43:44.992Z,9.30
2022-10-29T03:46:13.377Z,9.00
2022-10-29T03:48:41.796Z,10.00
2022-10-29T03:51:11.866Z,10.87
2022-10-29T03:53:41.588Z,10.10
2022-10-29T03:56:14.051Z,9.07
2022-10-29T03:58:42.423Z,9.43
2022-10-29T04:01:12.060Z,10.50
2022-10-29T04:03:42.415Z,10.07
2022-10-29T04:06:13.207Z,10.07
2022-10-29T04:08:43.179Z,9.50
2022-10-29T04:11:14.524Z,10.80
2022-10-29T04:13:42.968Z,9.63
2022-10-29T04:16:11.360Z,10.30
2022-10-29T04:18:39.703Z,9.90
2022-10-29T04:29:35.432Z,9.63
2022-10-29T04:32:03.817Z,9.90
2022-10-29T04:34:32.174Z,9.83
2022-10-29T04:37:00.569Z,10.07
2022-10-29T04:39:30.332Z,9.00
2022-10-29T04:41:58.791Z,8.77
2022-10-29T04:44:28.426Z,8.53
2022-10-29T04:46:56.807Z,9.50
2022-10-29T04:49:25.284Z,9.00
2022-10-29T04:51:53.759Z,8.90
2022-10-29T04:54:22.144Z,9.30
2022-10-29T04:56:51.918Z,10.00
2022-10-29T04:59:20.274Z,10.20
2022-10-29T05:01:48.802Z,11.03
2022-10-29T05:04:17.187Z,10.77
2022-10-29T05:06:45.517Z,9.43
2022-10-29T05:09:13.901Z,9.23
2022-10-29T05:11:42.217Z,8.97
2022-10-29T05:14:11.967Z,9.90
2022-10-29T05:16:40.374Z,9.13
2022-10-29T05:19:08.721Z,9.30
2022-10-29T05:21:37.239Z,10.67
2022-10-29T05:24:06.058Z,9.60
2022-10-29T05:26:34.509Z,9.60
2022-10-29T05:29:03.100Z,9.47
2022-10-29T05:31:32.851Z,9.30
2022-10-29T05:34:01.220Z,9.67
2022-10-29T05:36:29.679Z,10.03
2022-10-29T05:38:58.082Z,9.10
2022-10-29T05:41:26.483Z,8.90
2022-10-29T05:43:54.821Z,10.07
2022-10-29T05:46:23.213Z,9.83
2022-10-29T05:48:52.946Z,9.13
2022-10-29T05:51:21.357Z,9.50
2022-10-29T05:53:49.873Z,9.80
2022-10-29T05:56:18.494Z,9.23
2022-10-29T05:58:49.859Z,9.90
2022-10-29T06:01:19.814Z,10.40
2022-10-29T06:03:48.433Z,9.20
2022-10-29T06:06:18.263Z,9.80
2022-10-29T06:08:46.676Z,9.90
2022-10-29T06:11:15.028Z,11.10
2022-10-29T06:13:43.456Z,10.07
2022-10-29T06:16:11.916Z,9.47
2022-10-29T06:18:40.331Z,9.00
2022-10-29T06:21:08.744Z,9.30
2022-10-29T06:23:38.553Z,8.93
2022-10-29T06:26:07.150Z,8.80
2022-10-29T06:28:35.512Z,9.00
2022-10-29T06:31:04.096Z,9.10
2022-10-29T06:33:32.501Z,9.93
2022-10-29T06:36:01.633Z,9.40
2022-10-29T06:38:30.305Z,10.27
2022-10-29T06:41:00.065Z,10.03
2022-10-29T06:43:28.492Z,10.20
2022-10-29T06:45:56.954Z,11.20
2022-10-29T06:48:25.455Z,9.27
2022-10-29T06:50:54.033Z,9.20
2022-10-29T06:53:22.567Z,10.40
2022-10-29T06:55:50.929Z,9.50
2022-10-29T06:58:22.538Z,9.80
2022-10-29T07:00:51.154Z,10.60
2022-10-29T07:03:21.359Z,9.90
2022-10-29T07:05:56.552Z,10.70
2022-10-29T07:08:24.969Z,9.67
2022-10-29T07:10:54.495Z,9.63
2022-10-29T07:13:24.328Z,9.60
2022-10-29T07:15:52.747Z,9.80
2022-10-29T07:18:21.113Z,9.27
2022-10-29T07:20:49.562Z,9.60
2022-10-29T07:23:18.025Z,10.60
2022-10-29T07:25:46.534Z,9.10
2022-10-29T07:28:17.625Z,9.20
2022-10-29T07:30:48.362Z,10.23
2022-10-29T07:33:17.245Z,9.60
2022-10-29T07:35:46.697Z,8.87
2022-10-29T07:38:15.251Z,9.03
2022-10-29T07:40:50.303Z,9.23
2022-10-29T07:43:20.167Z,9.23
2022-10-29T07:45:53.187Z,8.20
2022-10-29T07:48:22.485Z,9.30
2022-10-29T07:50:51.182Z,9.40
2022-10-29T07:53:19.598Z,9.17
2022-10-29T07:55:55.046Z,9.50
2022-10-29T07:58:24.269Z,10.17
2022-10-29T08:00:54.673Z,10.03
2022-10-29T08:03:23.394Z,9.83
2022-10-29T08:05:55.451Z,9.50
2022-10-29T08:08:25.193Z,12.07
2022-10-29T08:10:53.616Z,10.63
2022-10-29T08:13:21.978Z,9.73
2022-10-29T08:15:50.381Z,11.50
2022-10-29T08:18:20.354Z,10.90
2022-10-29T08:20:49.137Z,11.70
2022-10-29T08:23:17.592Z,10.40
2022-10-29T08:25:46.670Z,9.70
2022-10-29T08:28:17.156Z,8.70
2022-10-29T08:30:51.180Z,10.60
2022-10-29T08:33:20.994Z,9.73
2022-10-29T08:35:49.781Z,10.87
2022-10-29T08:38:18.149Z,10.67
2022-10-29T08:41:12.289Z,9.37
2022-10-29T08:44:07.397Z,11.27
2022-10-29T08:46:45.467Z,10.83
2022-10-29T08:49:19.448Z,10.43
2022-10-29T08:51:55.777Z,10.60
2022-10-29T08:54:31.164Z,11.47
2022-10-29T08:57:06.868Z,10.80
2022-10-29T08:59:42.285Z,10.83
2022-10-29T09:02:18.072Z,10.63
2022-10-29T09:04:47.820Z,11.10
2022-10-29T09:07:55.162Z,11.60
2022-10-29T09:10:34.255Z,10.80
2022-10-29T09:13:27.867Z,11.63
2022-10-29T09:16:11.610Z,9.93
2022-10-29T09:19:05.148Z,11.20
2022-10-29T09:21:41.964Z,11.70
2022-10-29T09:24:16.333Z,12.90
2022-10-29T09:26:55.493Z,11.30
2022-10-29T09:29:47.162Z,10.93
2022-10-29T09:32:22.717Z,11.07
2022-10-29T09:34:54.183Z,11.80
2022-10-29T09:37:30.037Z,11.67
2022-10-29T09:39:59.621Z,11.43
2022-10-29T09:42:37.566Z,11.70
2022-10-29T09:45:09.480Z,10.70
2022-10-29T09:47:47.232Z,11.77
2022-10-29T09:50:27.669Z,12.10
2022-10-29T09:52:57.833Z,12.40
2022-10-29T09:55:29.276Z,11.77
2022-10-29T09:57:59.189Z,12.27
2022-10-29T10:00:30.496Z,11.67
2022-10-29T10:03:04.118Z,12.37
2022-10-29T10:05:35.289Z,11.97
2022-10-29T10:08:12.245Z,11.70
2022-10-29T10:10:53.117Z,14.13
2022-10-29T10:13:27.006Z,12.50
2022-10-29T10:15:57.783Z,12.67
2022-10-29T10:18:28.575Z,12.57
2022-10-29T10:21:08.600Z,13.43
2022-10-29T10:23:51.745Z,14.23
2022-10-29T10:26:36.990Z,13.10
2022-10-29T10:29:14.984Z,12.83
2022-10-29T10:31:45.670Z,12.33
2022-10-29T10:34:21.031Z,11.20
2022-10-29T10:36:53.615Z,13.40
2022-10-29T10:39:31.737Z,14.07
2022-10-29T10:42:04.886Z,14.90
2022-10-29T10:44:34.080Z,16.60
2022-10-29T10:47:09.254Z,17.73
2022-10-29T10:49:39.334Z,18.73
2022-10-29T10:52:16.841Z,18.70
2022-10-29T10:54:56.215Z,16.37
2022-10-29T10:57:28.729Z,18.90
2022-10-29T11:00:07.499Z,16.60
2022-10-29T11:02:48.296Z,15.20
2022-10-29T11:05:19.912Z,15.13
2022-10-29T11:07:56.517Z,13.60
2022-10-29T11:10:34.709Z,15.23
2022-10-29T11:13:09.338Z,14.83
2022-10-29T11:15:43.071Z,14.10
2022-10-29T11:18:19.564Z,16.00
2022-10-29T11:20:58.858Z,13.77
2022-10-29T11:23:38.343Z,13.47
2022-10-29T11:26:13.914Z,13.57
2022-10-29T11:28:50.133Z,13.07
2022-10-29T11:31:25.396Z,13.90
2022-10-29T11:34:05.510Z,13.60
2022-10-29T11:36:41.958Z,12.97
2022-10-29T11:39:17.077Z,14.07
2022-10-29T11:41:57.374Z,13.07
2022-10-29T11:44:27.150Z,13.17
2022-10-29T11:47:23.030Z,12.73
2022-10-29T11:50:23.289Z,12.23
2022-10-29T11:53:03.360Z,13.20
2022-10-29T11:55:42.890Z,12.90
2022-10-29T11:58:19.261Z,13.63
